createdAt,value
2022-10-25T00:02:23.118Z,8.37
2022-10-25T00:04:49.793Z,8.33
2022-10-25T00:07:16.359Z,8.33
2022-10-25T00:09:42.966Z,8.34
2022-10-25T00:12:09.790Z,8.38
2022-10-25T00:14:36.406Z,8.31
2022-10-25T00:17:02.951Z,8.26
2022-10-25T00:19:29.541Z,8.26
2022-10-25T00:21:56.143Z,8.24
2022-10-25T00:24:22.715Z,8.26
2022-10-25T00:26:49.258Z,8.17
2022-10-25T00:29:17.587Z,8.14
2022-10-25T00:31:44.309Z,8.13
2022-10-25T00:34:10.903Z,8.08
2022-10-25T00:36:37.522Z,8.04
2022-10-25T00:39:04.178Z,8.01
2022-10-25T00:41:33.411Z,8.01
2022-10-25T00:44:37.627Z,8.07
2022-10-25T00:47:06.055Z,7.91
2022-10-25T00:49:34.051Z,7.85
2022-10-25T00:52:05.088Z,7.79
2022-10-25T00:54:43.588Z,7.79
2022-10-25T00:57:16.444Z,7.77
2022-10-25T00:59:44.808Z,7.68
2022-10-25T01:02:12.072Z,7.72
2022-10-25T01:04:39.033Z,7.55
2022-10-25T01:07:05.570Z,7.47
2022-10-25T01:09:35.347Z,7.66
2022-10-25T01:12:02.319Z,7.57
2022-10-25T01:14:31.219Z,7.62
2022-10-25T01:17:08.929Z,7.67
2022-10-25T01:20:13.232Z,7.67
2022-10-25T01:22:49.938Z,7.69
2022-10-25T01:25:43.850Z,7.83
2022-10-25T01:28:47.910Z,7.88
2022-10-25T01:31:36.102Z,7.98
2022-10-25T01:34:12.881Z,8.03
2022-10-25T01:36:52.850Z,8.09
2022-10-25T01:39:31.455Z,8.14
2022-10-25T01:42:06.911Z,8.17
2022-10-25T01:45:02.259Z,8.20
2022-10-25T01:47:31.559Z,8.27
2022-10-25T01:50:05.438Z,8.31
2022-10-25T01:52:31.980Z,8.42
2022-10-25T01:54:58.527Z,8.54
2022-10-25T01:57:50.093Z,8.57
2022-10-25T02:00:20.043Z,8.65
2022-10-25T02:03:22.605Z,8.72
2022-10-25T02:05:59.021Z,8.73
2022-10-25T02:08:36.180Z,8.77
2022-10-25T02:11:28.220Z,8.82
2022-10-25T02:14:13.637Z,8.89
2022-10-25T02:16:49.262Z,8.94
2022-10-25T02:19:23.807Z,9.08
2022-10-25T02:21:53.932Z,9.11
2022-10-25T02:24:26.443Z,9.14
2022-10-25T02:26:54.488Z,9.12
2022-10-25T02:29:22.847Z,9.17
2022-10-25T02:31:49.595Z,9.21
2022-10-25T02:34:16.294Z,9.20
2022-10-25T02:36:42.850Z,9.21
2022-10-25T02:39:09.477Z,9.20
2022-10-25T02:41:36.029Z,9.22
2022-10-25T02:44:02.578Z,9.22
2022-10-25T02:46:29.132Z,9.18
2022-10-25T02:48:55.812Z,9.21
2022-10-25T02:51:23.025Z,9.21
2022-10-25T02:53:49.971Z,9.19
2022-10-25T02:56:19.713Z,9.27
2022-10-25T02:58:48.240Z,9.31
2022-10-25T03:01:16.289Z,9.48
2022-10-25T03:03:43.071Z,9.54
2022-10-25T03:06:11.260Z,9.67
2022-10-25T03:08:39.553Z,9.64
2022-10-25T03:11:07.452Z,9.67
2022-10-25T03:13:34.403Z,9.72
2022-10-25T03:16:01.206Z,9.85
2022-10-25T03:18:27.839Z,10.02
2022-10-25T03:20:59.405Z,10.18
2022-10-25T03:23:26.291Z,10.23
2022-10-25T03:25:57.965Z,10.30
2022-10-25T03:28:27.333Z,10.34
2022-10-25T03:30:54.730Z,10.32
2022-10-25T03:33:21.407Z,10.39
2022-10-25T03:35:52.665Z,10.44
2022-10-25T03:38:19.404Z,10.47
2022-10-25T03:40:46.081Z,10.45
2022-10-25T03:43:13.018Z,10.47
2022-10-25T03:45:39.650Z,10.45
2022-10-25T03:48:06.477Z,10.45
2022-10-25T03:50:33.121Z,10.54
2022-10-25T03:53:00.021Z,10.54
2022-10-25T03:55:26.643Z,10.48
2022-10-25T03:57:53.182Z,10.51
2022-10-25T04:00:19.843Z,10.58
2022-10-25T04:02:46.402Z,10.56
2022-10-25T04:05:13.055Z,10.70
2022-10-25T04:07:39.610Z,10.72
2022-10-25T04:10:06.487Z,10.65
2022-10-25T04:12:33.007Z,10.59
2022-10-25T04:15:02.332Z,10.62
2022-10-25T04:17:28.883Z,10.61
2022-10-25T04:19:55.448Z,10.60
2022-10-25T04:22:22.153Z,10.63
2022-10-25T04:24:48.804Z,10.66
2022-10-25T04:27:15.700Z,10.63
2022-10-25T04:29:42.250Z,10.49
2022-10-25T04:32:08.853Z,10.45
2022-10-25T04:34:35.473Z,10.34
2022-10-25T04:37:02.019Z,10.33
2022-10-25T04:39:28.734Z,10.24
2022-10-25T04:41:55.340Z,10.19
2022-10-25T04:44:21.996Z,10.15
2022-10-25T04:46:49.019Z,10.12
2022-10-25T04:49:16.152Z,10.08
2022-10-25T04:51:42.860Z,10.12
2022-10-25T04:54:11.432Z,10.22
2022-10-25T04:56:38.148Z,10.25
2022-10-25T04:59:04.715Z,10.25
2022-10-25T05:01:31.447Z,10.15
2022-10-25T05:03:58.073Z,10.16
2022-10-25T05:06:26.757Z,10.11
2022-10-25T05:08:54.386Z,10.11
2022-10-25T05:11:24.516Z,10.14
2022-10-25T05:13:51.319Z,10.11
2022-10-25T05:16:22.916Z,10.06
2022-10-25T05:18:50.044Z,10.05
2022-10-25T05:21:18.218Z,10.07
2022-10-25T05:23:45.774Z,10.03
2022-10-25T05:26:15.064Z,10.04
2022-10-25T05:28:43.426Z,10.05
2022-10-25T05:31:15.881Z,10.05
2022-10-25T05:33:46.191Z,10.07
2022-10-25T05:36:13.840Z,10.10
2022-10-25T05:38:41.271Z,10.19
2022-10-25T05:41:08.566Z,10.10
2022-10-25T05:43:35.131Z,10.02
2022-10-25T05:46:09.322Z,9.92
2022-10-25T05:48:37.324Z,9.90
2022-10-25T05:51:34.625Z,9.92
2022-10-25T05:54:04.115Z,9.90
2022-10-25T05:56:32.378Z,9.91
2022-10-25T05:59:09.262Z,9.90
2022-10-25T06:01:38.360Z,9.86
2022-10-25T06:04:05.534Z,9.84
2022-10-25T06:06:32.331Z,9.73
2022-10-25T06:09:00.978Z,9.71
2022-10-25T06:11:29.576Z,9.70
2022-10-25T06:13:56.248Z,9.68
2022-10-25T06:16:23.596Z,9.61
2022-10-25T06:18:50.290Z,9.46
2022-10-25T06:21:19.626Z,9.43
2022-10-25T06:23:47.579Z,9.34
2022-10-25T06:26:36.745Z,9.32
2022-10-25T06:29:05.331Z,9.28
2022-10-25T06:31:32.811Z,9.24
2022-10-25T06:34:03.059Z,9.31
2022-10-25T06:36:31.347Z,9.30
2022-10-25T06:39:03.567Z,9.21
2022-10-25T06:41:36.710Z,9.14
2022-10-25T06:44:06.626Z,9.14
2022-10-25T06:46:57.787Z,9.16
2022-10-25T06:49:23.326Z,9.17
2022-10-25T06:51:49.912Z,9.24
2022-10-25T06:54:16.509Z,9.29
2022-10-25T06:56:43.147Z,9.36
2022-10-25T06:59:09.706Z,9.49
2022-10-25T07:01:45.045Z,9.56
2022-10-25T07:04:11.806Z,9.63
2022-10-25T07:06:38.421Z,9.73
2022-10-25T07:09:06.198Z,9.92
2022-10-25T07:11:33.060Z,10.19
2022-10-25T07:14:00.651Z,10.35
2022-10-25T07:16:28.718Z,10.48
2022-10-25T07:19:03.181Z,10.55
2022-10-25T07:21:31.683Z,10.60
2022-10-25T07:23:58.271Z,10.69
2022-10-25T07:26:28.399Z,10.78
2022-10-25T07:28:56.897Z,10.85
2022-10-25T07:31:38.106Z,10.90
2022-10-25T07:34:05.598Z,11.06
2022-10-25T07:36:32.295Z,11.32
2022-10-25T07:38:59.186Z,11.61
2022-10-25T07:41:26.209Z,11.98
2022-10-25T07:43:52.799Z,12.31
2022-10-25T07:46:19.612Z,12.51
2022-10-25T07:48:46.202Z,12.70
2022-10-25T07:51:15.368Z,12.86
2022-10-25T07:53:42.696Z,12.95
2022-10-25T07:56:20.439Z,13.21
2022-10-25T07:58:50.014Z,13.44
2022-10-25T08:01:28.076Z,13.47
2022-10-25T08:03:55.441Z,13.73
2022-10-25T08:06:25.604Z,13.81
2022-10-25T08:08:52.554Z,13.85
2022-10-25T08:11:19.326Z,14.01
2022-10-25T08:13:49.788Z,14.23
2022-10-25T08:16:16.432Z,14.37
2022-10-25T08:18:44.014Z,14.46
2022-10-25T08:21:10.599Z,14.62
2022-10-25T08:23:37.179Z,14.57
2022-10-25T08:26:03.765Z,14.21
2022-10-25T08:28:31.316Z,14.03
2022-10-25T08:30:58.723Z,14.45
2022-10-25T08:33:25.306Z,14.87
2022-10-25T08:35:51.958Z,15.13
2022-10-25T08:38:18.535Z,15.40
2022-10-25T08:40:54.334Z,15.57
2022-10-25T08:43:30.184Z,15.87
2022-10-25T08:46:10.175Z,15.94
2022-10-25T08:48:41.202Z,16.20
2022-10-25T08:51:21.406Z,16.17
2022-10-25T08:56:25.738Z,16.54
2022-10-25T08:59:00.212Z,16.13
2022-10-25T09:01:40.841Z,16.60
2022-10-25T09:04:07.614Z,17.04
2022-10-25T09:06:47.693Z,17.61
2022-10-25T09:09:40.858Z,17.95
2022-10-25T09:12:22.605Z,18.49
2022-10-25T09:15:02.840Z,18.40
2022-10-25T09:17:41.401Z,18.44
2022-10-25T09:20:16.948Z,18.23
2022-10-25T09:22:49.491Z,18.03
2022-10-25T09:25:52.928Z,18.23
2022-10-25T09:28:26.117Z,18.51
2022-10-25T09:30:57.276Z,18.25
2022-10-25T09:33:28.360Z,18.73
2022-10-25T09:35:57.303Z,18.85
2022-10-25T09:38:57.243Z,18.29
2022-10-25T09:41:42.326Z,18.33
2022-10-25T09:44:36.255Z,18.47
2022-10-25T09:47:19.499Z,18.79
2022-10-25T09:50:00.128Z,19.44
2022-10-25T09:52:54.492Z,20.01
2022-10-25T09:55:33.493Z,19.67
2022-10-25T09:58:01.525Z,19.83
2022-10-25T10:00:28.355Z,19.74
2022-10-25T10:02:55.613Z,20.13
2022-10-25T10:05:22.684Z,20.15
2022-10-25T10:07:50.790Z,19.80
2022-10-25T10:10:24.844Z,20.14
2022-10-25T10:13:16.827Z,20.29
2022-10-25T10:15:52.654Z,20.35
2022-10-25T10:18:33.574Z,20.32
2022-10-25T10:21:06.038Z,20.33
2022-10-25T10:23:38.111Z,21.00
2022-10-25T10:26:25.727Z,21.79
2022-10-25T10:29:07.838Z,22.34
2022-10-25T10:31:44.398Z,22.33
2022-10-25T10:34:44.033Z,22.66
2022-10-25T10:37:21.079Z,22.43
2022-10-25T10:40:05.160Z,23.11
2022-10-25T10:43:16.551Z,23.09
2022-10-25T10:45:26.919Z,22.60
2022-10-25T10:47:53.439Z,22.83
2022-10-25T10:50:23.249Z,23.15
2022-10-25T10:52:55.130Z,23.51
2022-10-25T10:55:31.204Z,22.97
2022-10-25T10:58:32.729Z,23.49
2022-10-25T11:01:02.803Z,23.83
2022-10-25T11:03:42.407Z,25.06
2022-10-25T11:06:15.667Z,24.81
2022-10-25T11:08:47.738Z,24.88
2022-10-25T11:11:21.579Z,24.42
2022-10-25T11:13:58.665Z,25.31
2022-10-25T11:16:33.554Z,24.97
2022-10-25T11:19:15.523Z,25.22
2022-10-25T11:22:14.399Z,25.21
2022-10-25T11:24:59.178Z,25.37
2022-10-25T11:27:37.848Z,25.92
2022-10-25T11:30:21.119Z,25.83
2022-10-25T11:33:24.733Z,24.82
2022-10-25T11:36:13.183Z,24.64
2022-10-25T11:38:48.884Z,23.65
2022-10-25T11:41:24.706Z,24.55
2022-10-25T11:44:15.603Z,24.96
2022-10-25T11:46:48.340Z,26.00
2022-10-25T11:49:27.173Z,26.58
2022-10-25T11:51:53.733Z,26.27
2022-10-25T11:54:41.082Z,27.51
2022-10-25T11:57:32.672Z,28.79
2022-10-25T12:00:14.806Z,28.68
2022-10-25T12:03:15.536Z,26.91
2022-10-25T12:06:23.409Z,27.54
2022-10-25T12:09:20.643Z,27.71
2022-10-25T12:11:53.289Z,28.05
2022-10-25T12:14:28.433Z,28.10
2022-10-25T12:16:58.040Z,27.01
2022-10-25T12:19:28.511Z,26.99
2022-10-25T12:22:01.596Z,28.30
2022-10-25T12:24:39.552Z,27.69
2022-10-25T12:27:10.415Z,28.78
2022-10-25T12:29:44.167Z,29.11
2022-10-25T12:32:29.032Z,28.08
2022-10-25T12:34:59.418Z,27.73
2022-10-25T12:37:45.106Z,28.75
2022-10-25T12:40:17.999Z,28.91
2022-10-25T12:42:49.033Z,28.70
2022-10-25T12:45:57.499Z,28.34
2022-10-25T12:49:06.597Z,28.11
2022-10-25T12:51:45.172Z,26.83
2022-10-25T12:54:33.481Z,26.03
2022-10-25T12:57:30.794Z,26.61
2022-10-25T13:00:14.384Z,26.89
2022-10-25T13:02:59.231Z,26.68
2022-10-25T13:05:44.501Z,25.15
2022-10-25T13:08:13.086Z,25.36
2022-10-25T13:10:47.529Z,24.53
2022-10-25T13:13:16.822Z,25.04
2022-10-25T13:15:50.266Z,26.13
2022-10-25T13:18:39.998Z,25.77
2022-10-25T13:21:10.068Z,26.67
2022-10-25T13:23:42.824Z,27.37
2022-10-25T13:26:14.964Z,27.85
2022-10-25T13:28:49.927Z,29.10
2022-10-25T13:31:34.838Z,29.25
2022-10-25T13:34:13.325Z,28.66
2022-10-25T13:36:51.810Z,27.19
2022-10-25T13:39:25.412Z,25.42
2022-10-25T13:41:55.441Z,26.95
2022-10-25T13:44:26.476Z,28.17
2022-10-25T13:46:54.735Z,28.00
2022-10-25T13:49:27.447Z,27.88
2022-10-25T13:51:56.506Z,28.39
2022-10-25T13:54:23.674Z,28.20
2022-10-25T13:56:53.943Z,24.89
2022-10-25T13:59:50.037Z,24.80
2022-10-25T14:02:20.120Z,26.33
2022-10-25T14:04:47.134Z,27.20
2022-10-25T14:07:42.485Z,27.63
2022-10-25T14:10:16.890Z,26.63
2022-10-25T14:12:50.281Z,26.25
2022-10-25T14:15:35.744Z,26.28
2022-10-25T14:18:07.689Z,26.03
2022-10-25T14:20:35.463Z,27.32
2022-10-25T14:23:03.772Z,27.69
2022-10-25T14:25:39.427Z,27.97
2022-10-25T14:28:16.425Z,27.29
2022-10-25T14:30:46.223Z,26.65
2022-10-25T14:33:27.959Z,26.48
2022-10-25T14:36:11.619Z,27.35
2022-10-25T14:38:53.895Z,28.09
2022-10-25T14:41:26.569Z,28.28
2022-10-25T14:43:54.212Z,26.94
2022-10-25T14:46:23.577Z,25.91
2022-10-25T14:48:54.730Z,26.27
2022-10-25T14:51:29.857Z,25.59
2022-10-25T14:54:01.661Z,26.16
2022-10-25T14:56:30.072Z,25.92
2022-10-25T14:58:57.627Z,24.51
2022-10-25T15:01:24.600Z,22.68
2022-10-25T15:03:54.518Z,22.47
2022-10-25T15:06:24.863Z,20.68
2022-10-25T15:09:29.007Z,20.14
2022-10-25T15:12:11.760Z,18.92
2022-10-25T15:14:38.439Z,18.76
2022-10-25T15:17:29.234Z,18.38
2022-10-25T15:20:07.468Z,18.21
2022-10-25T15:22:46.857Z,18.14
2022-10-25T15:25:17.004Z,17.89
2022-10-25T15:27:43.925Z,17.56
2022-10-25T15:30:37.684Z,16.91
2022-10-25T15:33:24.230Z,16.82
2022-10-25T15:35:51.986Z,16.47
2022-10-25T15:38:19.431Z,16.24
2022-10-25T15:40:47.235Z,16.20
2022-10-25T15:43:13.965Z,16.13
2022-10-25T15:45:41.177Z,15.93
2022-10-25T15:48:14.078Z,15.59
2022-10-25T15:50:47.057Z,15.47
2022-10-25T15:53:13.605Z,15.60
2022-10-25T15:55:40.176Z,15.43
2022-10-25T15:58:09.795Z,15.29
2022-10-25T16:00:38.835Z,14.84
2022-10-25T16:03:08.396Z,14.71
2022-10-25T16:05:37.136Z,14.66
2022-10-25T16:08:04.753Z,14.42
2022-10-25T16:10:32.100Z,14.39
2022-10-25T16:13:05.873Z,13.95
2022-10-25T16:15:32.987Z,13.99
2022-10-25T16:17:59.517Z,13.59
2022-10-25T16:20:29.590Z,13.50
2022-10-25T16:22:57.466Z,13.53
2022-10-25T16:25:30.479Z,13.71
2022-10-25T16:28:00.055Z,13.35
2022-10-25T16:30:30.785Z,13.23
2022-10-25T16:32:57.367Z,13.02
2022-10-25T16:35:24.668Z,12.99
2022-10-25T16:37:51.984Z,12.87
2022-10-25T16:40:20.872Z,12.96
2022-10-25T16:42:48.528Z,12.79
2022-10-25T16:45:22.181Z,12.71
2022-10-25T16:47:49.077Z,12.70
2022-10-25T16:50:15.735Z,12.57
2022-10-25T16:52:42.381Z,12.47
2022-10-25T16:55:10.065Z,12.35
2022-10-25T16:57:36.704Z,12.29
2022-10-25T17:00:04.360Z,12.13
2022-10-25T17:02:31.001Z,11.86
2022-10-25T17:04:57.580Z,11.70
2022-10-25T17:07:24.423Z,11.74
2022-10-25T17:09:51.003Z,11.83
2022-10-25T17:12:17.779Z,11.91
2022-10-25T17:14:44.332Z,11.92
2022-10-25T17:17:10.972Z,11.88
2022-10-25T17:19:37.579Z,11.76
2022-10-25T17:22:04.205Z,11.65
2022-10-25T17:24:33.050Z,11.58
2022-10-25T17:26:59.674Z,11.53
2022-10-25T17:29:26.287Z,11.55
2022-10-25T17:31:53.036Z,11.59
2022-10-25T17:34:19.638Z,11.70
2022-10-25T17:36:46.253Z,11.64
2022-10-25T17:39:13.182Z,11.55
2022-10-25T17:41:39.737Z,11.49
2022-10-25T17:44:06.290Z,11.46
2022-10-25T17:46:32.955Z,11.39
2022-10-25T17:49:03.287Z,11.27
2022-10-25T17:51:31.086Z,11.28
2022-10-25T17:53:57.723Z,11.17
2022-10-25T17:56:26.341Z,11.15
2022-10-25T17:58:54.302Z,11.07
2022-10-25T18:01:26.514Z,11.03
2022-10-25T18:03:54.746Z,10.94
2022-10-25T18:08:56.827Z,10.76
2022-10-25T18:11:25.918Z,10.72
2022-10-25T18:13:54.887Z,10.70
2022-10-25T18:16:23.203Z,10.67
2022-10-25T18:18:49.740Z,10.62
2022-10-25T18:21:16.446Z,10.60
2022-10-25T18:23:43.124Z,10.64
2022-10-25T18:26:13.273Z,10.61
2022-10-25T18:28:40.115Z,10.59
2022-10-25T18:31:09.061Z,10.58
2022-10-25T18:33:38.002Z,10.53
2022-10-25T18:36:11.322Z,10.48
2022-10-25T18:38:38.129Z,10.46
2022-10-25T18:41:10.355Z,10.40
2022-10-25T18:43:36.949Z,10.35
2022-10-25T18:46:03.807Z,10.31
2022-10-25T18:48:30.557Z,10.27
2022-10-25T18:51:03.250Z,10.22
2022-10-25T18:53:30.750Z,10.18
2022-10-25T18:55:57.720Z,10.12
2022-10-25T18:58:24.277Z,10.07
2022-10-25T19:00:50.856Z,9.97
2022-10-25T19:03:17.467Z,9.92
2022-10-25T19:05:44.065Z,9.92
2022-10-25T19:08:12.119Z,9.86
2022-10-25T19:10:39.839Z,9.79
2022-10-25T19:13:07.691Z,9.74
2022-10-25T19:15:34.520Z,9.70
2022-10-25T19:18:01.195Z,9.68
2022-10-25T19:20:27.785Z,9.65
2022-10-25T19:22:58.580Z,9.66
2022-10-25T19:25:29.723Z,9.69
2022-10-25T19:27:56.837Z,9.69
2022-10-25T19:30:24.228Z,9.65
2022-10-25T19:32:51.075Z,9.61
2022-10-25T19:35:18.455Z,9.61
2022-10-25T19:37:45.321Z,9.60
2022-10-25T19:40:12.175Z,9.45
2022-10-25T19:42:38.766Z,9.31
2022-10-25T19:45:05.770Z,9.32
2022-10-25T19:47:34.705Z,9.22
2022-10-25T19:50:03.320Z,9.21
2022-10-25T19:52:29.894Z,9.16
2022-10-25T19:54:56.504Z,9.10
2022-10-25T19:57:23.115Z,9.09
2022-10-25T19:59:49.650Z,9.15
2022-10-25T20:02:16.246Z,9.16
2022-10-25T20:04:42.911Z,9.11
2022-10-25T20:07:09.459Z,9.08
2022-10-25T20:09:36.010Z,9.14
2022-10-25T20:12:02.578Z,9.17
2022-10-25T20:14:30.779Z,9.11
2022-10-25T20:16:57.399Z,9.01
2022-10-25T20:19:24.021Z,8.94
2022-10-25T20:21:50.678Z,8.95
2022-10-25T20:24:17.299Z,8.89
2022-10-25T20:26:46.990Z,8.95
2022-10-25T20:29:20.167Z,8.91
2022-10-25T20:31:48.176Z,8.89
2022-10-25T20:34:14.719Z,8.89
2022-10-25T20:36:41.256Z,8.79
2022-10-25T20:39:07.818Z,8.71
2022-10-25T20:41:35.274Z,8.63
2022-10-25T20:44:05.758Z,8.61
2022-10-25T20:46:33.722Z,8.56
2022-10-25T20:49:01.991Z,8.54
2022-10-25T20:51:28.826Z,8.51
2022-10-25T20:53:56.904Z,8.49
2022-10-25T20:56:23.776Z,8.53
2022-10-25T20:58:50.613Z,8.59
2022-10-25T21:01:17.529Z,8.70
2022-10-25T21:03:44.209Z,8.62
2022-10-25T21:06:12.272Z,8.56
2022-10-25T21:08:39.337Z,8.46
2022-10-25T21:11:07.787Z,8.39
2022-10-25T21:13:35.488Z,8.38
2022-10-25T21:16:06.662Z,8.46
2022-10-25T21:18:34.011Z,8.40
2022-10-25T21:21:02.784Z,8.38
2022-10-25T21:23:29.430Z,8.34
2022-10-25T21:26:04.439Z,8.32
2022-10-25T21:28:33.706Z,8.29
2022-10-25T21:31:05.243Z,8.24
2022-10-25T21:33:31.841Z,8.14
2022-10-25T21:36:03.431Z,8.08
2022-10-25T21:38:29.995Z,8.02
2022-10-25T21:41:06.837Z,8.05
2022-10-25T21:43:33.582Z,8.02
2022-10-25T21:46:00.162Z,7.95
2022-10-25T21:48:26.840Z,7.92
2022-10-25T21:50:58.560Z,7.92
2022-10-25T21:53:25.337Z,7.88
2022-10-25T21:55:52.071Z,7.94
2022-10-25T21:58:18.637Z,8.08
2022-10-25T22:00:45.191Z,8.14
2022-10-25T22:03:11.762Z,8.10
2022-10-25T22:05:43.217Z,8.03
2022-10-25T22:08:09.781Z,7.97
2022-10-25T22:10:36.352Z,7.96
2022-10-25T22:13:02.955Z,7.99
2022-10-25T22:15:29.649Z,8.05
2022-10-25T22:17:56.228Z,8.09
2022-10-25T22:20:22.809Z,8.09
2022-10-25T22:22:49.715Z,8.14
2022-10-25T22:25:16.478Z,8.15
2022-10-25T22:30:11.119Z,8.31
2022-10-25T22:32:37.643Z,8.51
2022-10-25T22:35:04.398Z,8.43
2022-10-25T22:37:30.941Z,8.45
2022-10-25T22:39:57.461Z,8.44
2022-10-25T22:42:25.323Z,8.47
2022-10-25T22:44:51.869Z,8.56
2022-10-25T22:47:18.454Z,8.54
2022-10-25T22:49:44.990Z,8.51
2022-10-25T22:52:13.705Z,8.58
2022-10-25T22:54:40.246Z,8.57
2022-10-25T22:57:06.778Z,8.62
2022-10-25T22:59:33.358Z,8.69
2022-10-25T23:01:59.894Z,8.78
2022-10-25T23:04:26.539Z,8.84
2022-10-25T23:06:53.167Z,8.91
2022-10-25T23:09:19.746Z,8.97
2022-10-25T23:11:46.625Z,8.95
2022-10-25T23:14:16.570Z,8.94
2022-10-25T23:16:45.450Z,8.96
2022-10-25T23:19:12.130Z,8.96
2022-10-25T23:21:38.718Z,8.87
2022-10-25T23:24:05.696Z,8.95
2022-10-25T23:26:34.344Z,8.95
2022-10-25T23:29:01.279Z,9.00
2022-10-25T23:31:28.910Z,9.03
2022-10-25T23:33:57.525Z,9.11
2022-10-25T23:36:26.645Z,9.16
2022-10-25T23:38:54.247Z,9.20
2022-10-25T23:41:22.069Z,9.18
2022-10-25T23:43:49.041Z,9.20
2022-10-25T23:46:15.642Z,9.18
2022-10-25T23:48:42.310Z,9.14
2022-10-25T23:51:15.831Z,9.15
2022-10-25T23:53:43.076Z,9.14
2022-10-25T23:56:11.996Z,9.17
2022-10-25T23:58:41.599Z,9.14
